createdAt,value
2018-09-20T00:00:26.298Z,91.60
2018-09-20T00:02:55.869Z,92.10
2018-09-20T00:05:25.409Z,92.00
2018-09-20T00:07:54.883Z,91.60
2018-09-20T00:10:24.429Z,92.00
2018-09-20T00:12:53.973Z,91.70
2018-09-20T00:15:23.666Z,92.00
2018-09-20T00:17:53.408Z,92.70
2018-09-20T00:20:22.928Z,93.00
2018-09-20T00:22:53.407Z,92.60
2018-09-20T00:25:22.865Z,93.10
2018-09-20T00:27:52.335Z,93.50
2018-09-20T00:30:21.857Z,94.00
2018-09-20T00:32:51.369Z,93.90
2018-09-20T00:35:23.927Z,94.00
2018-09-20T00:37:53.510Z,94.00
2018-09-20T00:40:26.182Z,93.80
2018-09-20T00:42:56.846Z,93.70
2018-09-20T00:45:26.310Z,94.30
2018-09-20T00:47:55.844Z,94.50
2018-09-20T00:50:25.527Z,94.40
2018-09-20T00:52:55.171Z,94.30
2018-09-20T00:55:25.651Z,93.70
2018-09-20T00:57:55.851Z,93.70
2018-09-20T01:00:25.643Z,93.40
2018-09-20T01:02:55.138Z,93.50
2018-09-20T01:05:24.864Z,93.30
2018-09-20T01:07:54.382Z,94.10
2018-09-20T01:10:23.802Z,93.90
2018-09-20T01:12:55.361Z,94.00
2018-09-20T01:15:25.863Z,93.90
2018-09-20T01:17:55.303Z,93.90
2018-09-20T01:20:24.839Z,93.80
2018-09-20T01:22:55.230Z,93.70
2018-09-20T01:25:25.766Z,94.20
2018-09-20T01:27:59.188Z,93.70
2018-09-20T01:30:28.763Z,94.40
2018-09-20T01:32:58.203Z,94.60
2018-09-20T01:35:27.718Z,94.20
2018-09-20T01:37:57.374Z,94.00
2018-09-20T01:40:28.042Z,94.00
2018-09-20T01:43:00.662Z,93.50
2018-09-20T01:45:30.392Z,93.70
2018-09-20T01:47:59.871Z,93.60
2018-09-20T01:50:33.303Z,93.10
2018-09-20T01:53:02.900Z,93.20
2018-09-20T01:55:32.321Z,93.10
2018-09-20T01:58:02.022Z,92.90
2018-09-20T02:00:31.598Z,92.90
2018-09-20T02:03:01.202Z,93.00
2018-09-20T02:05:31.032Z,93.40
2018-09-20T02:08:00.584Z,93.90
2018-09-20T02:10:30.066Z,93.90
2018-09-20T02:12:59.633Z,93.70
2018-09-20T02:15:30.494Z,93.60
2018-09-20T02:18:00.040Z,93.00
2018-09-20T02:20:29.509Z,92.70
2018-09-20T02:22:59.158Z,92.70
2018-09-20T02:25:28.674Z,92.60
2018-09-20T02:27:58.205Z,93.00
2018-09-20T02:30:27.833Z,92.70
2018-09-20T02:32:58.348Z,92.80
2018-09-20T02:35:28.117Z,93.10
2018-09-20T02:37:57.739Z,92.90
2018-09-20T02:40:27.321Z,93.00
2018-09-20T02:42:56.867Z,93.40
2018-09-20T02:45:27.392Z,93.10
2018-09-20T02:47:56.990Z,93.10
2018-09-20T02:50:26.475Z,93.20
2018-09-20T02:52:56.077Z,93.40
2018-09-20T02:55:26.671Z,93.20
2018-09-20T02:57:56.366Z,93.60
2018-09-20T03:00:25.844Z,94.30
2018-09-20T03:02:55.676Z,93.40
2018-09-20T03:05:25.122Z,93.40
2018-09-20T03:07:55.584Z,93.90
2018-09-20T03:10:25.827Z,93.60
2018-09-20T03:12:55.691Z,93.60
2018-09-20T03:15:25.294Z,93.70
2018-09-20T03:17:56.025Z,94.00
2018-09-20T03:20:25.569Z,94.20
2018-09-20T03:22:55.117Z,94.30
2018-09-20T03:25:24.722Z,94.50
2018-09-20T03:27:54.330Z,94.30
2018-09-20T03:30:24.554Z,94.50
2018-09-20T03:32:54.037Z,94.50
2018-09-20T03:35:23.523Z,95.20
2018-09-20T03:37:52.918Z,94.50
2018-09-20T03:40:22.379Z,94.80
2018-09-20T03:42:51.858Z,95.20
2018-09-20T03:45:21.413Z,95.40
2018-09-20T03:47:52.004Z,96.40
2018-09-20T03:50:22.493Z,95.00
2018-09-20T03:52:52.004Z,94.60
2018-09-20T03:55:21.580Z,95.00
2018-09-20T03:57:51.039Z,94.30
2018-09-20T04:00:21.653Z,94.60
2018-09-20T04:02:51.141Z,94.30
2018-09-20T04:05:25.548Z,94.30
2018-09-20T04:07:56.228Z,94.60
2018-09-20T04:10:26.451Z,95.00
2018-09-20T04:12:56.156Z,94.30
2018-09-20T04:15:26.736Z,94.30
2018-09-20T04:17:56.318Z,94.20
2018-09-20T04:20:26.263Z,94.20
2018-09-20T04:22:55.804Z,94.90
2018-09-20T04:25:25.306Z,94.70
2018-09-20T04:27:54.788Z,95.10
2018-09-20T04:30:26.343Z,95.10
2018-09-20T04:32:55.992Z,95.50
2018-09-20T04:35:26.412Z,96.20
2018-09-20T04:37:55.991Z,96.20
2018-09-20T04:40:29.299Z,96.90
2018-09-20T04:42:59.122Z,97.10
2018-09-20T04:45:29.720Z,96.90
2018-09-20T04:48:02.068Z,96.50
2018-09-20T04:50:31.649Z,96.00
2018-09-20T04:53:01.303Z,95.90
2018-09-20T04:55:30.930Z,96.10
2018-09-20T04:58:00.512Z,96.60
2018-09-20T05:00:30.036Z,95.90
2018-09-20T05:03:00.708Z,96.30
2018-09-20T05:05:30.226Z,96.30
2018-09-20T05:07:59.676Z,96.30
2018-09-20T05:10:29.171Z,96.60
2018-09-20T05:12:58.683Z,96.60
2018-09-20T05:15:30.226Z,96.70
2018-09-20T05:18:01.389Z,97.40
2018-09-20T05:20:30.894Z,97.10
2018-09-20T05:23:00.430Z,96.90
2018-09-20T05:25:29.990Z,97.40
2018-09-20T05:27:59.570Z,97.20
2018-09-20T05:30:29.176Z,97.40
2018-09-20T05:32:59.044Z,97.20
2018-09-20T05:35:28.640Z,97.40
2018-09-20T05:37:59.173Z,96.90
2018-09-20T05:40:29.229Z,96.50
2018-09-20T05:42:58.885Z,96.60
2018-09-20T05:45:28.520Z,96.00
2018-09-20T05:47:58.392Z,95.80
2018-09-20T05:50:27.853Z,95.60
2018-09-20T05:52:57.358Z,95.70
2018-09-20T05:55:26.823Z,95.80
2018-09-20T05:57:56.271Z,95.70
2018-09-20T06:00:25.889Z,95.90
2018-09-20T06:02:55.406Z,95.60
2018-09-20T06:05:29.755Z,95.50
2018-09-20T06:07:59.242Z,95.40
2018-09-20T06:10:28.982Z,95.70
2018-09-20T06:12:59.282Z,95.90
2018-09-20T06:15:29.175Z,95.60
2018-09-20T06:17:59.825Z,95.70
2018-09-20T06:20:29.287Z,95.20
2018-09-20T06:22:59.013Z,94.80
2018-09-20T06:25:29.306Z,94.80
2018-09-20T06:28:02.786Z,95.00
2018-09-20T06:30:33.042Z,94.90
2018-09-20T06:33:02.777Z,94.50
2018-09-20T06:35:32.816Z,94.10
2018-09-20T06:38:02.295Z,94.20
2018-09-20T06:40:31.779Z,94.70
2018-09-20T06:43:01.383Z,94.30
2018-09-20T06:45:32.004Z,94.00
2018-09-20T06:48:02.174Z,95.10
2018-09-20T06:50:31.947Z,94.80
2018-09-20T06:53:05.327Z,95.00
2018-09-20T06:55:34.969Z,95.20
2018-09-20T06:58:04.655Z,96.90
2018-09-20T07:00:36.241Z,96.00
2018-09-20T07:03:05.847Z,95.70
2018-09-20T07:05:35.344Z,95.40
2018-09-20T07:08:05.046Z,94.70
2018-09-20T07:10:34.777Z,94.50
2018-09-20T07:13:04.237Z,94.40
2018-09-20T07:15:33.847Z,94.30
2018-09-20T07:18:03.801Z,93.60
2018-09-20T07:20:33.377Z,93.80
2018-09-20T07:23:02.895Z,92.70
2018-09-20T07:25:33.449Z,92.30
2018-09-20T07:28:02.928Z,92.10
2018-09-20T07:30:32.514Z,92.40
2018-09-20T07:33:06.757Z,91.20
2018-09-20T07:35:36.936Z,91.90
2018-09-20T07:38:06.720Z,91.30
2018-09-20T07:40:36.193Z,90.40
2018-09-20T07:43:06.159Z,89.80
2018-09-20T07:45:35.644Z,90.20
2018-09-20T07:48:09.985Z,91.40
2018-09-20T07:50:39.598Z,91.00
2018-09-20T07:53:10.210Z,90.60
2018-09-20T07:55:39.839Z,91.80
2018-09-20T07:58:09.284Z,91.40
2018-09-20T08:00:38.895Z,92.00
2018-09-20T08:03:08.422Z,91.30
2018-09-20T08:05:37.894Z,91.30
2018-09-20T08:08:07.420Z,90.60
2018-09-20T08:10:40.049Z,91.10
2018-09-20T08:13:09.572Z,90.40
2018-09-20T08:15:40.081Z,90.00
2018-09-20T08:18:09.610Z,90.60
2018-09-20T08:20:40.995Z,89.00
2018-09-20T08:23:10.589Z,88.90
2018-09-20T08:25:41.131Z,87.70
2018-09-20T08:28:10.713Z,89.70
2018-09-20T08:30:40.374Z,88.00
2018-09-20T08:33:10.760Z,86.40
2018-09-20T08:35:40.227Z,89.60
2018-09-20T08:38:09.798Z,87.20
2018-09-20T08:40:41.367Z,87.90
2018-09-20T08:43:10.921Z,90.40
2018-09-20T08:45:40.457Z,90.00
2018-09-20T08:48:10.037Z,88.60
2018-09-20T08:50:39.503Z,87.90
2018-09-20T08:53:09.060Z,87.60
2018-09-20T08:55:39.244Z,84.40
2018-09-20T08:58:08.737Z,87.90
2018-09-20T09:00:38.327Z,87.70
2018-09-20T09:03:07.866Z,86.30
2018-09-20T09:05:37.371Z,87.10
2018-09-20T09:08:07.273Z,87.20
2018-09-20T09:10:36.890Z,86.10
2018-09-20T09:13:11.338Z,87.30
2018-09-20T09:15:40.789Z,87.10
2018-09-20T09:18:10.220Z,85.20
2018-09-20T09:20:39.697Z,84.80
2018-09-20T09:23:09.231Z,87.00
2018-09-20T09:25:38.766Z,87.20
2018-09-20T09:28:08.345Z,90.20
2018-09-20T09:30:38.022Z,89.90
2018-09-20T09:33:07.730Z,91.20
2018-09-20T09:35:37.248Z,91.40
2018-09-20T09:38:07.888Z,91.40
2018-09-20T09:40:41.289Z,90.90
2018-09-20T09:43:10.724Z,90.10
2018-09-20T09:45:40.267Z,92.00
2018-09-20T09:48:09.868Z,90.00
2018-09-20T09:50:39.396Z,89.20
2018-09-20T09:53:08.972Z,88.30
2018-09-20T09:55:38.564Z,89.40
2018-09-20T09:58:08.066Z,90.60
2018-09-20T10:00:40.149Z,85.90
2018-09-20T10:03:09.767Z,88.70
2018-09-20T10:05:39.281Z,86.30
2018-09-20T10:08:08.879Z,88.20
2018-09-20T10:10:38.356Z,88.10
2018-09-20T10:13:08.870Z,86.10
2018-09-20T10:15:38.328Z,85.10
2018-09-20T10:18:09.972Z,82.20
2018-09-20T10:20:39.540Z,86.40
2018-09-20T10:23:10.047Z,86.90
2018-09-20T10:25:39.590Z,86.60
2018-09-20T10:28:09.237Z,83.90
2018-09-20T10:30:38.706Z,82.90
2018-09-20T10:33:08.296Z,84.30
2018-09-20T10:35:38.861Z,83.10
2018-09-20T10:38:12.220Z,83.50
2018-09-20T10:40:41.697Z,83.80
2018-09-20T10:43:11.189Z,82.00
2018-09-20T10:45:41.849Z,83.80
2018-09-20T10:48:11.361Z,81.20
2018-09-20T10:50:40.826Z,79.90
2018-09-20T10:53:10.420Z,79.80
2018-09-20T10:55:41.006Z,80.50
2018-09-20T10:58:10.576Z,82.00
2018-09-20T11:00:45.681Z,79.00
2018-09-20T11:03:16.415Z,79.90
2018-09-20T11:05:47.939Z,81.10
2018-09-20T11:08:17.449Z,82.50
2018-09-20T11:10:47.984Z,82.40
2018-09-20T11:13:17.454Z,80.70
2018-09-20T11:15:49.111Z,79.30
2018-09-20T11:18:19.565Z,79.60
2018-09-20T11:20:51.137Z,82.20
2018-09-20T11:23:23.923Z,78.90
2018-09-20T11:25:55.128Z,78.80
2018-09-20T11:28:24.741Z,78.00
2018-09-20T11:30:54.446Z,78.60
2018-09-20T11:33:23.922Z,77.70
2018-09-20T11:35:53.388Z,79.20
2018-09-20T11:38:28.850Z,77.90
2018-09-20T11:40:59.372Z,75.50
2018-09-20T11:43:29.175Z,77.00
2018-09-20T11:45:58.802Z,74.80
2018-09-20T11:48:28.509Z,78.80
2018-09-20T11:51:01.970Z,77.20
2018-09-20T11:53:31.572Z,75.10
2018-09-20T11:56:01.280Z,77.90
2018-09-20T11:58:30.813Z,76.50
2018-09-20T12:01:00.541Z,77.90
2018-09-20T12:03:30.081Z,74.60
2018-09-20T12:05:59.640Z,73.00
2018-09-20T12:08:30.155Z,73.30
2018-09-20T12:11:02.734Z,71.80
2018-09-20T12:13:32.360Z,70.60
2018-09-20T12:16:01.992Z,71.10
2018-09-20T12:18:32.584Z,74.20
2018-09-20T12:21:02.183Z,71.80
2018-09-20T12:23:31.828Z,71.30
2018-09-20T12:26:02.329Z,67.00
2018-09-20T12:28:31.919Z,73.70
2018-09-20T12:31:06.532Z,68.30
2018-09-20T12:33:36.204Z,72.60
2018-09-20T12:36:06.123Z,70.70
2018-09-20T12:38:35.717Z,69.60
2018-09-20T12:41:06.948Z,67.90
2018-09-20T12:43:36.715Z,70.10
2018-09-20T12:46:06.273Z,69.80
2018-09-20T12:48:35.856Z,68.20
2018-09-20T12:51:05.711Z,69.20
2018-09-20T12:53:38.223Z,67.20
2018-09-20T12:56:07.864Z,67.50
2018-09-20T12:58:41.420Z,70.00
2018-09-20T13:01:12.108Z,71.60
2018-09-20T13:03:41.556Z,68.50
2018-09-20T13:06:11.797Z,67.60
2018-09-20T13:08:42.125Z,69.90
2018-09-20T13:11:12.791Z,69.30
2018-09-20T13:13:43.016Z,68.60
2018-09-20T13:16:12.848Z,69.20
2018-09-20T13:18:42.497Z,65.90
2018-09-20T13:21:13.050Z,67.80
2018-09-20T13:23:42.669Z,66.10
2018-09-20T13:26:12.317Z,67.40
2018-09-20T13:28:41.879Z,67.70
2018-09-20T13:31:11.805Z,64.40
2018-09-20T13:33:42.325Z,66.20
2018-09-20T13:36:11.902Z,65.00
2018-09-20T13:38:44.877Z,67.50
2018-09-20T13:41:15.496Z,63.90
2018-09-20T13:43:45.011Z,64.60
2018-09-20T13:46:14.833Z,63.90
2018-09-20T13:48:44.767Z,62.70
2018-09-20T13:51:16.552Z,63.60
2018-09-20T13:53:47.155Z,61.50
2018-09-20T13:56:16.748Z,63.00
2018-09-20T13:58:48.637Z,62.70
2018-09-20T14:01:18.452Z,60.90
2018-09-20T14:03:48.626Z,62.00
2018-09-20T14:06:18.328Z,59.90
2018-09-20T14:08:49.839Z,61.90
2018-09-20T14:11:20.352Z,60.10
2018-09-20T14:13:50.992Z,61.20
2018-09-20T14:16:21.245Z,56.70
2018-09-20T14:18:50.919Z,55.30
2018-09-20T14:21:20.556Z,56.60
2018-09-20T14:23:50.146Z,57.00
2018-09-20T14:26:19.902Z,57.00
2018-09-20T14:28:50.117Z,58.40
2018-09-20T14:31:19.645Z,57.40
2018-09-20T14:33:49.654Z,59.10
2018-09-20T14:36:20.460Z,57.70
2018-09-20T14:38:54.020Z,59.60
2018-09-20T14:41:23.532Z,55.90
2018-09-20T14:43:53.236Z,57.90
2018-09-20T14:46:22.806Z,58.70
2018-09-20T14:48:52.542Z,59.30
2018-09-20T14:51:22.150Z,57.00
2018-09-20T14:53:51.672Z,58.90
2018-09-20T14:56:21.284Z,59.70
2018-09-20T14:58:50.850Z,59.70
2018-09-20T15:01:20.328Z,59.70
2018-09-20T15:03:50.794Z,58.70
2018-09-20T15:06:20.373Z,57.50
2018-09-20T15:08:50.036Z,56.80
2018-09-20T15:11:21.028Z,59.00
2018-09-20T15:13:50.596Z,59.50
2018-09-20T15:16:21.177Z,59.50
2018-09-20T15:18:50.864Z,56.80
2018-09-20T15:21:20.612Z,56.70
2018-09-20T15:23:50.132Z,58.00
2018-09-20T15:26:19.730Z,57.70
2018-09-20T15:28:50.934Z,57.30
2018-09-20T15:31:20.541Z,56.20
2018-09-20T15:33:50.103Z,56.90
2018-09-20T15:36:19.779Z,57.50
2018-09-20T15:38:49.322Z,57.30
2018-09-20T15:41:19.950Z,56.70
2018-09-20T15:43:49.500Z,56.70
2018-09-20T15:46:20.122Z,55.60
2018-09-20T15:48:49.809Z,55.00
2018-09-20T15:51:22.387Z,54.90
2018-09-20T15:53:51.924Z,55.80
2018-09-20T15:56:21.526Z,56.10
2018-09-20T15:58:50.964Z,56.90
2018-09-20T16:01:20.484Z,56.30
2018-09-20T16:03:50.077Z,57.50
2018-09-20T16:06:19.643Z,58.10
2018-09-20T16:08:49.223Z,57.80
2018-09-20T16:11:19.343Z,59.20
2018-09-20T16:13:49.938Z,59.40
2018-09-20T16:16:20.470Z,60.30
2018-09-20T16:18:50.325Z,59.60
2018-09-20T16:21:21.120Z,60.70
2018-09-20T16:23:50.663Z,60.10
2018-09-20T16:26:20.497Z,60.90
2018-09-20T16:29:00.004Z,60.80
2018-09-20T16:31:50.674Z,60.90
2018-09-20T16:34:31.639Z,60.10
2018-09-20T16:37:08.432Z,61.20
2018-09-20T16:39:44.694Z,61.80
2018-09-20T16:42:22.514Z,62.80
2018-09-20T16:44:51.968Z,64.00
2018-09-20T16:47:21.533Z,64.10
2018-09-20T16:49:51.979Z,63.40
2018-09-20T16:52:21.456Z,62.00
2018-09-20T16:54:51.995Z,61.40
2018-09-20T16:57:21.753Z,63.30
2018-09-20T16:59:51.299Z,64.70
2018-09-20T17:02:20.840Z,65.40
2018-09-20T17:04:54.272Z,66.10
2018-09-20T17:07:23.890Z,65.90
2018-09-20T17:09:54.545Z,67.80
2018-09-20T17:12:24.201Z,68.20
2018-09-20T17:14:54.715Z,68.60
2018-09-20T17:17:24.297Z,69.80
2018-09-20T17:19:55.830Z,70.50
2018-09-20T17:22:26.418Z,70.00
2018-09-20T17:24:56.001Z,71.30
2018-09-20T17:27:26.100Z,71.80
2018-09-20T17:29:56.114Z,72.00
2018-09-20T17:32:25.609Z,72.40
2018-09-20T17:34:55.311Z,73.80
2018-09-20T17:37:27.016Z,74.40
2018-09-20T17:39:57.460Z,74.00
2018-09-20T17:42:29.841Z,75.40
2018-09-20T17:44:59.408Z,75.60
2018-09-20T17:47:29.572Z,74.80
2018-09-20T17:49:59.071Z,74.80
2018-09-20T17:52:29.943Z,75.60
2018-09-20T17:55:00.902Z,74.10
2018-09-20T17:57:33.097Z,72.70
2018-09-20T18:00:03.606Z,71.90
2018-09-20T18:02:33.238Z,70.60
2018-09-20T18:05:02.696Z,70.80
2018-09-20T18:07:36.112Z,70.60
2018-09-20T18:10:05.730Z,71.00
2018-09-20T18:12:36.201Z,71.10
2018-09-20T18:15:05.812Z,71.30
2018-09-20T18:17:35.306Z,70.10
2018-09-20T18:20:04.806Z,69.80
2018-09-20T18:22:34.618Z,68.80
2018-09-20T18:25:04.170Z,68.40
2018-09-20T18:27:34.267Z,68.10
2018-09-20T18:30:03.970Z,67.90
2018-09-20T18:32:33.433Z,68.10
2018-09-20T18:35:04.093Z,67.80
2018-09-20T18:37:36.199Z,67.80
2018-09-20T18:40:06.373Z,68.80
2018-09-20T18:42:36.122Z,68.50
2018-09-20T18:45:06.292Z,68.70
2018-09-20T18:47:36.142Z,68.60
2018-09-20T18:50:05.847Z,68.70
2018-09-20T18:52:35.480Z,69.00
2018-09-20T18:55:05.269Z,68.60
2018-09-20T18:57:34.925Z,70.30
2018-09-20T19:00:05.913Z,70.50
2018-09-20T19:02:35.492Z,70.50
2018-09-20T19:05:05.073Z,71.50
2018-09-20T19:07:34.718Z,71.00
2018-09-20T19:10:05.281Z,70.90
2018-09-20T19:12:39.016Z,71.60
2018-09-20T19:15:09.900Z,71.80
2018-09-20T19:17:39.467Z,72.50
2018-09-20T19:20:09.717Z,72.60
2018-09-20T19:22:39.277Z,74.80
2018-09-20T19:25:09.143Z,73.90
2018-09-20T19:27:38.709Z,74.20
2018-09-20T19:30:08.346Z,73.30
2018-09-20T19:32:37.855Z,74.10
2018-09-20T19:35:07.415Z,75.50
2018-09-20T19:37:37.955Z,76.00
2018-09-20T19:40:07.617Z,76.10
2018-09-20T19:42:37.270Z,76.40
2018-09-20T19:45:06.956Z,77.30
2018-09-20T19:47:36.437Z,77.30
2018-09-20T19:50:06.422Z,79.60
2018-09-20T19:52:35.938Z,80.90
2018-09-20T19:55:05.853Z,79.20
2018-09-20T19:57:38.063Z,77.50
2018-09-20T20:00:07.985Z,77.10
2018-09-20T20:02:37.458Z,76.80
2018-09-20T20:05:07.105Z,75.90
2018-09-20T20:07:36.613Z,76.10
2018-09-20T20:10:06.743Z,75.90
2018-09-20T20:12:36.332Z,75.50
2018-09-20T20:15:05.851Z,74.90
2018-09-20T20:17:35.464Z,74.50
2018-09-20T20:20:05.116Z,74.50
2018-09-20T20:22:34.752Z,75.00
2018-09-20T20:25:09.952Z,74.40
2018-09-20T20:27:40.804Z,74.50
2018-09-20T20:30:11.307Z,73.20
2018-09-20T20:32:44.016Z,72.90
2018-09-20T20:35:14.329Z,72.40
2018-09-20T20:37:43.905Z,72.90
2018-09-20T20:40:15.757Z,72.40
2018-09-20T20:42:45.463Z,72.60
2018-09-20T20:45:17.926Z,72.70
2018-09-20T20:47:48.018Z,72.80
2018-09-20T20:50:17.604Z,72.90
2018-09-20T20:52:48.131Z,73.40
2018-09-20T20:55:17.761Z,73.70
2018-09-20T20:57:47.241Z,73.90
2018-09-20T21:00:58.079Z,74.40
2018-09-20T21:03:27.527Z,74.70
2018-09-20T21:05:56.934Z,74.50
2018-09-20T21:08:26.331Z,75.20
2018-09-20T21:10:56.768Z,74.70
2018-09-20T21:13:26.319Z,74.70
2018-09-20T21:15:55.800Z,75.90
2018-09-20T21:18:25.376Z,75.70
2018-09-20T21:20:54.979Z,76.00
2018-09-20T21:23:26.461Z,76.20
2018-09-20T21:25:56.993Z,76.30
2018-09-20T21:28:26.523Z,77.20
2018-09-20T21:30:55.966Z,77.00
2018-09-20T21:33:25.394Z,77.10
2018-09-20T21:35:56.856Z,76.50
2018-09-20T21:38:26.925Z,76.60
2018-09-20T21:40:57.110Z,76.70
2018-09-20T21:43:28.675Z,77.10
2018-09-20T21:45:58.157Z,77.40
2018-09-20T21:48:27.759Z,77.40
2018-09-20T21:50:57.258Z,77.00
2018-09-20T21:53:26.918Z,78.00
2018-09-20T21:55:56.372Z,76.60
2018-09-20T21:58:26.559Z,76.60
2018-09-20T22:01:03.032Z,76.20
2018-09-20T22:03:33.335Z,76.50
2018-09-20T22:06:03.861Z,76.80
2018-09-20T22:08:33.279Z,77.80
2018-09-20T22:11:02.911Z,77.70
2018-09-20T22:13:32.388Z,77.60
2018-09-20T22:16:01.829Z,78.30
2018-09-20T22:18:31.298Z,78.60
2018-09-20T22:21:00.789Z,78.60
2018-09-20T22:23:30.378Z,78.10
2018-09-20T22:25:59.765Z,78.10
2018-09-20T22:28:29.240Z,78.00
2018-09-20T22:30:58.789Z,77.90
2018-09-20T22:33:28.334Z,78.60
2018-09-20T22:35:58.470Z,78.10
2018-09-20T22:38:27.855Z,77.90
2018-09-20T22:40:57.262Z,77.80
2018-09-20T22:43:26.834Z,78.00
2018-09-20T22:45:56.337Z,79.30
2018-09-20T22:48:25.741Z,79.00
2018-09-20T22:50:55.319Z,78.90
2018-09-20T22:53:25.070Z,79.60
2018-09-20T22:55:54.603Z,79.40
2018-09-20T22:58:24.268Z,80.20
2018-09-20T23:00:53.792Z,81.50
2018-09-20T23:03:27.237Z,81.30
2018-09-20T23:05:57.170Z,82.90
2018-09-20T23:08:26.681Z,82.50
2018-09-20T23:10:57.123Z,84.20
2018-09-20T23:13:26.708Z,86.10
2018-09-20T23:15:56.176Z,85.70
2018-09-20T23:18:25.828Z,88.80
2018-09-20T23:20:55.308Z,87.80
2018-09-20T23:23:26.939Z,86.40
2018-09-20T23:25:56.459Z,85.80
2018-09-20T23:28:25.951Z,86.50
2018-09-20T23:30:55.447Z,87.00
2018-09-20T23:33:25.016Z,87.00
2018-09-20T23:35:54.552Z,86.40
2018-09-20T23:38:24.998Z,86.10
2018-09-20T23:40:54.450Z,88.10
2018-09-20T23:43:23.926Z,87.50
2018-09-20T23:45:53.438Z,88.70
2018-09-20T23:48:23.021Z,89.70
2018-09-20T23:50:52.542Z,88.70
2018-09-20T23:53:22.107Z,89.30
2018-09-20T23:55:51.662Z,90.40
2018-09-20T23:58:21.104Z,90.20
